Time;durP1;ratioP1;P1;durP2;ratioP2;P2;SDS_P1;SDS_P2;PMS_P1;PMS_P2;Temp;Humidity;BMP_temperature;BMP_pressure;BME280_temperature;BME280_humidity;BME280_pressure;Samples;Min_cycle;Max_cycle;Signal;HPM_P1;HPM_P2
2024/02/14 00:00:13;;;;;;;5.60;4.40;;;7.70;99.90;;;;;;5139076;27;20849;-62
2024/02/14 00:02:41;;;;;;;6.40;4.03;;;7.60;99.90;;;;;;5138899;27;20545;-63
2024/02/14 00:05:10;;;;;;;5.30;4.17;;;7.70;99.90;;;;;;5138765;27;20489;-62
2024/02/14 00:07:38;;;;;;;5.70;4.60;;;7.70;99.90;;;;;;5138672;27;20512;-63
2024/02/14 00:10:06;;;;;;;7.20;4.40;;;7.70;99.90;;;;;;5139347;27;20455;-62
2024/02/14 00:12:34;;;;;;;5.03;3.77;;;7.70;99.90;;;;;;5139244;27;20832;-63
2024/02/14 00:15:03;;;;;;;5.43;4.20;;;7.80;57.50;;;;;;5139192;27;20493;-62
2024/02/14 00:17:31;;;;;;;9.80;3.80;;;7.80;60.10;;;;;;5138450;27;20777;-63
2024/02/14 00:19:59;;;;;;;7.37;3.97;;;7.70;88.70;;;;;;5139034;27;20481;-63
2024/02/14 00:22:26;;;;;;;6.07;4.10;;;7.70;59.20;;;;;;5138837;28;20954;-63
2024/02/14 00:24:53;;;;;;;8.17;3.93;;;7.70;39.00;;;;;;5138183;27;20489;-62
2024/02/14 00:27:21;;;;;;;7.57;4.70;;;7.70;63.90;;;;;;5138227;27;20478;-63
2024/02/14 00:29:48;;;;;;;5.40;3.83;;;7.70;56.70;;;;;;5138845;28;20509;-62
2024/02/14 00:32:15;;;;;;;6.83;4.00;;;7.70;88.20;;;;;;5138726;28;20455;-63
2024/02/14 00:34:45;;;;;;;7.70;4.00;;;7.70;89.70;;;;;;5138484;27;20450;-63
2024/02/14 00:37:13;;;;;;;5.13;3.73;;;7.70;95.60;;;;;;5138704;27;20478;-62
2024/02/14 00:39:40;;;;;;;6.23;4.00;;;7.60;99.90;;;;;;5138539;28;20501;-62
2024/02/14 00:42:08;;;;;;;5.30;3.40;;;7.60;99.90;;;;;;5138892;28;20455;-63
2024/02/14 00:44:35;;;;;;;8.40;3.67;;;7.60;99.90;;;;;;5139300;27;20497;-63
2024/02/14 00:47:02;;;;;;;5.50;4.03;;;7.60;99.90;;;;;;5138513;27;20455;-63
2024/02/14 00:49:30;;;;;;;7.40;3.83;;;7.60;99.90;;;;;;5138572;27;20458;-63
2024/02/14 00:51:59;;;;;;;6.80;3.80;;;7.60;99.90;;;;;;5138835;28;20470;-64
2024/02/14 00:54:26;;;;;;;7.00;3.90;;;7.50;99.90;;;;;;5138650;27;20455;-65
2024/02/14 00:56:53;;;;;;;8.10;3.87;;;7.50;99.90;;;;;;5138210;28;20490;-65
2024/02/14 00:59:21;;;;;;;4.87;3.40;;;7.40;1.00;;;;;;5138084;28;20461;-66
2024/02/14 01:01:48;;;;;;;6.70;3.67;;;7.40;1.00;;;;;;5138975;27;20546;-68
2024/02/14 01:04:15;;;;;;;6.60;3.77;;;7.40;1.00;;;;;;5137413;28;20471;-72
2024/02/14 01:06:42;;;;;;;7.47;4.10;;;7.30;1.00;;;;;;5138384;28;20845;-70
2024/02/14 01:09:11;;;;;;;8.67;3.60;;;7.30;1.00;;;;;;5138125;28;20491;-72
2024/02/14 01:11:39;;;;;;;6.93;4.17;;;7.30;1.00;;;;;;5138135;28;20527;-72
2024/02/14 01:14:06;;;;;;;5.90;3.93;;;7.30;1.00;;;;;;5137740;28;20447;-72
2024/02/14 01:16:33;;;;;;;7.57;4.47;;;7.20;69.60;;;;;;5138654;27;20469;-70
2024/02/14 01:19:01;;;;;;;5.43;3.80;;;7.20;99.90;;;;;;5138430;28;20919;-73
2024/02/14 01:21:28;;;;;;;5.03;3.37;;;7.20;99.90;;;;;;5140495;28;20486;-72
2024/02/14 01:23:56;;;;;;;10.37;4.40;;;7.20;99.90;;;;;;5141912;28;20461;-71
2024/02/14 01:26:25;;;;;;;7.70;4.20;;;7.10;99.90;;;;;;5138945;27;20498;-70
2024/02/14 01:28:52;;;;;;;4.57;3.43;;;7.10;99.90;;;;;;5143134;27;20458;-67
2024/02/14 01:31:19;;;;;;;8.33;5.20;;;7.10;99.90;;;;;;5150504;27;20458;-72
2024/02/14 01:33:47;;;;;;;6.67;4.17;;;7.00;1.00;;;;;;5151664;27;20488;-70
2024/02/14 01:36:14;;;;;;;5.40;4.07;;;7.00;1.00;;;;;;5152984;27;20478;-69
2024/02/14 01:38:42;;;;;;;8.23;3.90;;;7.10;1.00;;;;;;5153423;27;20470;-72
2024/02/14 01:41:10;;;;;;;5.37;3.50;;;7.00;9.60;;;;;;5152185;27;20555;-71
2024/02/14 01:43:38;;;;;;;7.53;3.93;;;7.00;99.90;;;;;;5150605;27;20466;-71
2024/02/14 01:46:07;;;;;;;7.03;3.97;;;7.00;99.90;;;;;;5152488;27;20501;-70
2024/02/14 01:48:35;;;;;;;5.63;3.57;;;7.00;99.90;;;;;;5151841;27;20454;-70
2024/02/14 01:51:07;;;;;;;5.77;3.77;;;6.90;99.90;;;;;;5151194;27;20494;-69
2024/02/14 01:53:34;;;;;;;5.73;3.57;;;7.00;99.90;;;;;;5146306;27;20466;-70
2024/02/14 01:56:01;;;;;;;4.43;3.60;;;7.00;99.90;;;;;;5142634;27;20959;-68
2024/02/14 01:58:30;;;;;;;5.40;3.90;;;6.90;99.90;;;;;;5142668;27;20523;-68
2024/02/14 02:00:59;;;;;;;6.17;4.87;;;6.90;99.90;;;;;;5141130;27;20458;-67
2024/02/14 02:03:26;;;;;;;5.60;4.00;;;7.00;99.90;;;;;;5141468;27;20486;-66
2024/02/14 02:05:54;;;;;;;5.50;3.90;;;7.00;99.90;;;;;;5141924;27;20577;-68
2024/02/14 02:08:22;;;;;;;7.37;3.87;;;7.00;99.90;;;;;;5141811;27;20454;-65
2024/02/14 02:10:50;;;;;;;5.20;3.57;;;7.00;99.90;;;;;;5141133;27;20527;-67
2024/02/14 02:13:17;;;;;;;7.20;4.37;;;7.00;99.90;;;;;;5140946;27;20553;-68
2024/02/14 02:15:45;;;;;;;5.50;3.83;;;7.00;99.90;;;;;;5141546;27;20454;-69
2024/02/14 02:18:14;;;;;;;5.87;3.70;;;7.00;99.90;;;;;;5143750;27;20887;-69
2024/02/14 02:20:42;;;;;;;6.30;4.10;;;7.00;99.90;;;;;;5146002;27;20458;-70
2024/02/14 02:23:14;;;;;;;6.00;4.03;;;7.00;99.90;;;;;;5143063;27;20871;-69
2024/02/14 02:25:42;;;;;;;4.63;3.40;;;7.00;99.90;;;;;;5140943;27;20498;-68
2024/02/14 02:28:09;;;;;;;8.33;4.23;;;7.00;99.90;;;;;;5141430;27;20562;-65
2024/02/14 02:30:37;;;;;;;4.83;3.40;;;7.00;99.90;;;;;;5141430;27;20545;-69
2024/02/14 02:33:05;;;;;;;4.70;2.97;;;7.00;99.90;;;;;;5140762;27;20891;-67
2024/02/14 02:35:32;;;;;;;3.90;3.30;;;7.00;99.90;;;;;;5141232;27;20507;-68
2024/02/14 02:37:59;;;;;;;8.43;4.10;;;7.00;99.90;;;;;;5141038;27;20553;-67
2024/02/14 02:40:28;;;;;;;5.90;4.30;;;7.00;99.90;;;;;;5139745;27;20520;-68
2024/02/14 02:42:55;;;;;;;7.10;4.20;;;7.10;99.90;;;;;;5140269;27;20486;-67
2024/02/14 02:45:23;;;;;;;5.20;3.60;;;7.10;99.90;;;;;;5140116;27;20493;-67
2024/02/14 02:47:51;;;;;;;6.70;3.30;;;7.10;99.90;;;;;;5141135;27;20459;-68
2024/02/14 02:50:19;;;;;;;5.63;3.37;;;7.00;99.90;;;;;;5140939;27;20462;-68
2024/02/14 02:52:46;;;;;;;5.80;3.30;;;7.10;99.90;;;;;;5140248;27;20934;-67
2024/02/14 02:55:14;;;;;;;4.40;3.13;;;7.10;99.90;;;;;;5140329;27;20454;-67
2024/02/14 02:57:45;;;;;;;4.33;3.37;;;7.10;99.90;;;;;;5140346;27;20458;-67
2024/02/14 03:00:13;;;;;;;3.80;3.00;;;7.20;99.90;;;;;;5140730;27;20515;-69
2024/02/14 03:02:44;;;;;;;4.77;2.73;;;7.20;99.90;;;;;;5140286;27;20890;-67
2024/02/14 03:05:17;;;;;;;4.70;3.70;;;7.20;99.90;;;;;;5139963;27;20466;-67
2024/02/14 03:07:47;;;;;;;6.60;3.97;;;7.20;99.90;;;;;;5140317;27;20497;-69
2024/02/14 03:10:17;;;;;;;7.90;3.70;;;7.20;99.90;;;;;;5140294;27;20458;-67
2024/02/14 03:12:48;;;;;;;5.87;3.10;;;7.20;99.90;;;;;;5139841;27;20455;-67
2024/02/14 03:15:16;;;;;;;5.73;3.40;;;7.30;99.90;;;;;;5141151;27;20454;-67
2024/02/14 03:17:43;;;;;;;4.50;3.40;;;7.30;99.90;;;;;;5141547;27;20508;-68
2024/02/14 03:20:13;;;;;;;4.10;3.20;;;7.30;99.90;;;;;;5141540;27;20462;-67
2024/02/14 03:22:44;;;;;;;4.53;3.07;;;7.30;99.90;;;;;;5140148;27;20446;-68
2024/02/14 03:25:13;;;;;;;3.70;2.60;;;7.30;99.90;;;;;;5139338;27;20459;-71
2024/02/14 03:27:41;;;;;;;5.40;2.57;;;7.30;99.90;;;;;;5139831;27;20776;-68
2024/02/14 03:30:12;;;;;;;3.90;2.50;;;7.40;99.90;;;;;;5139309;27;20946;-67
2024/02/14 03:32:40;;;;;;;5.83;3.30;;;7.40;99.90;;;;;;5141980;27;20461;-69
2024/02/14 03:35:10;;;;;;;4.60;3.00;;;7.40;99.90;;;;;;5145612;27;20485;-69
2024/02/14 03:37:37;;;;;;;6.67;3.33;;;7.40;99.90;;;;;;5145782;27;20801;-68
2024/02/14 03:40:06;;;;;;;5.50;3.60;;;7.40;99.90;;;;;;5148084;27;20459;-69
2024/02/14 03:42:34;;;;;;;5.17;2.93;;;7.40;99.90;;;;;;5143194;27;20459;-68
2024/02/14 03:45:05;;;;;;;5.57;2.60;;;7.40;99.90;;;;;;5141280;27;20462;-69
2024/02/14 03:47:34;;;;;;;7.63;3.90;;;7.40;99.90;;;;;;5143448;27;20554;-68
2024/02/14 03:50:02;;;;;;;5.20;3.07;;;7.40;99.90;;;;;;5149614;27;20475;-68
2024/02/14 03:52:31;;;;;;;5.77;3.40;;;7.40;99.90;;;;;;5146152;27;20458;-69
2024/02/14 03:54:59;;;;;;;4.70;3.30;;;7.40;99.90;;;;;;5147613;27;20462;-68
2024/02/14 03:57:28;;;;;;;7.43;3.60;;;7.40;99.90;;;;;;5149040;27;20454;-68
2024/02/14 03:59:56;;;;;;;5.10;3.23;;;7.40;99.90;;;;;;5148487;27;20935;-67
2024/02/14 04:02:24;;;;;;;3.90;3.07;;;7.40;99.90;;;;;;5149619;27;20457;-68
2024/02/14 04:04:52;;;;;;;6.93;2.57;;;7.40;99.90;;;;;;5148420;27;20960;-68
2024/02/14 04:07:20;;;;;;;4.20;2.87;;;7.40;99.90;;;;;;5143952;27;20493;-69
2024/02/14 04:09:47;;;;;;;4.70;3.00;;;7.40;99.90;;;;;;5147864;27;20541;-69
2024/02/14 04:12:14;;;;;;;5.03;3.17;;;7.40;99.90;;;;;;5139769;27;20462;-68
2024/02/14 04:14:41;;;;;;;5.13;3.50;;;7.40;99.90;;;;;;5138050;27;20454;-69
2024/02/14 04:17:08;;;;;;;4.80;3.20;;;7.40;99.90;;;;;;5138520;27;20558;-68
2024/02/14 04:19:36;;;;;;;6.10;3.33;;;7.40;99.90;;;;;;5138689;27;20455;-69
2024/02/14 04:22:05;;;;;;;5.33;3.60;;;7.40;99.90;;;;;;5138817;27;20465;-70
2024/02/14 04:24:34;;;;;;;4.90;3.43;;;7.40;99.90;;;;;;5138855;27;20462;-69
2024/02/14 04:27:02;;;;;;;5.20;3.40;;;7.50;99.90;;;;;;5138137;28;20486;-69
2024/02/14 04:29:32;;;;;;;5.00;3.90;;;7.50;99.90;;;;;;5138751;28;20459;-70
2024/02/14 04:32:00;;;;;;;5.53;3.50;;;7.50;99.90;;;;;;5138742;28;20494;-68
2024/02/14 04:34:27;;;;;;;5.83;3.53;;;7.50;99.90;;;;;;5138499;28;20470;-68
2024/02/14 04:36:54;;;;;;;6.60;3.83;;;7.50;99.90;;;;;;5138002;28;20541;-68
2024/02/14 04:39:23;;;;;;;5.17;3.67;;;7.50;99.90;;;;;;5137291;28;20974;-69
2024/02/14 04:41:50;;;;;;;5.30;3.83;;;7.50;99.90;;;;;;5128661;28;20451;-67
2024/02/14 04:44:17;;;;;;;6.13;3.23;;;7.50;99.90;;;;;;5115933;28;20451;-67
2024/02/14 04:46:45;;;;;;;4.00;3.30;;;7.60;99.90;;;;;;5115872;28;20487;-69
2024/02/14 04:49:14;;;;;;;9.40;3.60;;;7.60;99.90;;;;;;5115601;28;20508;-69
2024/02/14 04:51:41;;;;;;;7.87;5.00;;;7.60;99.90;;;;;;5115337;28;20463;-67
2024/02/14 04:54:09;;;;;;;5.40;3.77;;;7.70;99.90;;;;;;5114140;28;20472;-68
2024/02/14 04:56:38;;;;;;;4.67;3.40;;;7.60;99.90;;;;;;5115403;28;20791;-69
2024/02/14 04:59:05;;;;;;;6.10;4.10;;;7.70;99.90;;;;;;5116628;28;20508;-69
2024/02/14 05:01:32;;;;;;;7.27;3.97;;;7.70;99.90;;;;;;5116631;28;20467;-69
2024/02/14 05:04:00;;;;;;;11.57;4.60;;;7.70;99.90;;;;;;5120059;28;20459;-68
2024/02/14 05:06:27;;;;;;;5.20;3.80;;;7.70;99.90;;;;;;5121404;28;20486;-68
2024/02/14 05:08:54;;;;;;;7.17;4.20;;;7.70;99.90;;;;;;5121228;28;20904;-67
2024/02/14 05:11:22;;;;;;;6.33;4.30;;;7.80;99.90;;;;;;5121217;28;20452;-68
2024/02/14 05:13:50;;;;;;;5.83;5.00;;;7.80;99.90;;;;;;5121639;28;20854;-68
2024/02/14 05:16:19;;;;;;;5.90;3.90;;;7.80;99.90;;;;;;5121031;28;20486;-68
2024/02/14 05:18:47;;;;;;;6.50;3.60;;;7.80;99.90;;;;;;5121074;28;20971;-68
2024/02/14 05:21:14;;;;;;;4.27;3.60;;;7.80;99.90;;;;;;5121214;28;20509;-68
2024/02/14 05:23:41;;;;;;;7.80;4.20;;;7.80;99.90;;;;;;5121036;28;20455;-67
2024/02/14 05:26:09;;;;;;;4.90;3.77;;;7.80;99.90;;;;;;5120721;28;20586;-67
2024/02/14 05:28:36;;;;;;;7.23;3.80;;;7.90;99.90;;;;;;5121088;28;20451;-68
2024/02/14 05:31:05;;;;;;;6.20;3.77;;;7.90;99.90;;;;;;5120853;28;20804;-67
2024/02/14 05:33:32;;;;;;;6.40;4.20;;;7.90;99.90;;;;;;5121182;28;20487;-68
2024/02/14 05:35:59;;;;;;;6.27;3.50;;;7.90;99.90;;;;;;5120933;28;20508;-68
2024/02/14 05:38:26;;;;;;;6.20;3.90;;;8.00;99.90;;;;;;5121117;28;20532;-69
2024/02/14 05:40:54;;;;;;;4.63;3.67;;;8.00;99.90;;;;;;5120747;28;20508;-68
2024/02/14 05:43:21;;;;;;;9.63;4.50;;;8.00;99.90;;;;;;5120709;27;20884;-68
2024/02/14 05:45:49;;;;;;;6.60;3.97;;;8.00;99.90;;;;;;5120459;28;20868;-68
2024/02/14 05:48:18;;;;;;;5.40;3.50;;;8.00;99.90;;;;;;5120508;28;20487;-68
2024/02/14 05:50:45;;;;;;;4.20;3.50;;;8.00;99.90;;;;;;5120513;28;20546;-69
2024/02/14 05:53:13;;;;;;;4.87;3.80;;;8.00;99.90;;;;;;5119472;27;20502;-67
2024/02/14 05:55:40;;;;;;;5.00;4.20;;;8.10;99.90;;;;;;5119404;28;20456;-68
2024/02/14 05:58:07;;;;;;;4.80;4.20;;;8.00;99.90;;;;;;5120591;27;20508;-69
2024/02/14 06:00:34;;;;;;;6.00;4.00;;;8.00;99.90;;;;;;5120766;28;20508;-68
2024/02/14 06:03:02;;;;;;;4.93;4.10;;;8.00;99.90;;;;;;5120201;28;20459;-68
2024/02/14 06:05:30;;;;;;;4.90;3.93;;;8.00;99.90;;;;;;5121648;28;20540;-68
2024/02/14 06:07:58;;;;;;;5.83;3.87;;;8.00;99.90;;;;;;5124481;27;20522;-66
2024/02/14 06:10:26;;;;;;;6.40;4.30;;;8.10;99.90;;;;;;5121143;28;20498;-68
2024/02/14 06:12:53;;;;;;;5.10;4.20;;;8.10;99.90;;;;;;5120425;28;20892;-68
2024/02/14 06:15:20;;;;;;;6.30;4.53;;;8.10;99.90;;;;;;5119857;28;20456;-67
2024/02/14 06:17:47;;;;;;;5.03;4.53;;;8.10;99.90;;;;;;5120567;28;20509;-66
2024/02/14 06:20:17;;;;;;;5.60;5.10;;;8.10;99.90;;;;;;5120107;28;20775;-66
2024/02/14 06:22:46;;;;;;;5.70;5.17;;;8.10;99.90;;;;;;5119519;28;20546;-66
2024/02/14 06:25:16;;;;;;;7.03;5.60;;;8.10;99.90;;;;;;5119124;27;20494;-66
2024/02/14 06:27:45;;;;;;;13.33;7.97;;;8.20;99.90;;;;;;5119515;28;20490;-66
2024/02/14 06:30:13;;;;;;;7.40;6.00;;;8.20;99.90;;;;;;5119797;28;20509;-66
2024/02/14 06:32:41;;;;;;;7.40;5.90;;;8.10;99.90;;;;;;5119387;28;20588;-66
2024/02/14 06:35:08;;;;;;;7.93;7.23;;;8.10;99.90;;;;;;5119525;28;20511;-67
2024/02/14 06:37:35;;;;;;;9.73;8.30;;;8.10;99.90;;;;;;5119258;28;20490;-68
2024/02/14 06:40:08;;;;;;;10.13;8.80;;;8.20;99.90;;;;;;5118223;28;20451;-66
2024/02/14 06:42:35;;;;;;;9.47;8.50;;;8.20;99.90;;;;;;5117320;28;20756;-67
2024/02/14 06:45:03;;;;;;;11.53;9.30;;;8.20;99.90;;;;;;5118500;28;20452;-66
2024/02/14 06:47:30;;;;;;;12.20;9.80;;;8.20;99.90;;;;;;5118137;28;20494;-66
2024/02/14 06:49:57;;;;;;;11.57;10.47;;;8.20;99.90;;;;;;5117749;28;20567;-65
2024/02/14 06:52:25;;;;;;;12.27;10.10;;;8.10;99.90;;;;;;5118435;28;20807;-66
2024/02/14 06:54:53;;;;;;;11.20;10.00;;;8.10;99.90;;;;;;5117154;28;20943;-65
2024/02/14 06:57:21;;;;;;;11.63;10.53;;;8.10;99.90;;;;;;5118429;28;20540;-66
2024/02/14 06:59:49;;;;;;;11.23;9.67;;;8.20;99.90;;;;;;5118301;28;20463;-66
2024/02/14 07:02:16;;;;;;;12.40;10.77;;;8.10;99.90;;;;;;5117418;27;20512;-66
2024/02/14 07:04:43;;;;;;;11.20;9.70;;;8.10;99.90;;;;;;5117374;28;20747;-65
2024/02/14 07:07:10;;;;;;;12.10;10.97;;;8.20;99.90;;;;;;5116375;28;20574;-67
2024/02/14 07:09:39;;;;;;;11.73;10.60;;;8.20;99.90;;;;;;5116363;28;20512;-66
2024/02/14 07:12:06;;;;;;;9.70;8.53;;;8.20;99.90;;;;;;5116620;28;20512;-67
2024/02/14 07:14:36;;;;;;;12.23;9.53;;;8.20;99.90;;;;;;5117472;28;20891;-66
2024/02/14 07:17:03;;;;;;;11.93;10.73;;;8.20;99.90;;;;;;5118492;28;20761;-66
2024/02/14 07:19:30;;;;;;;10.47;9.40;;;8.20;99.90;;;;;;5118490;28;20505;-66
2024/02/14 07:21:58;;;;;;;10.60;9.60;;;8.20;99.90;;;;;;5118858;28;20579;-66
2024/02/14 07:24:25;;;;;;;12.27;10.47;;;8.20;99.90;;;;;;5118980;28;20491;-66
2024/02/14 07:26:53;;;;;;;11.60;10.10;;;8.30;99.90;;;;;;5116908;28;20560;-67
2024/02/14 07:29:20;;;;;;;11.67;10.47;;;8.30;99.90;;;;;;5118606;28;20491;-66
2024/02/14 07:31:49;;;;;;;12.70;10.80;;;8.30;99.90;;;;;;5118732;28;20887;-65
2024/02/14 07:34:16;;;;;;;9.83;8.83;;;8.30;99.90;;;;;;5118657;28;20548;-65
2024/02/14 07:36:46;;;;;;;8.60;7.70;;;8.30;99.90;;;;;;5118393;27;20490;-66
2024/02/14 07:39:13;;;;;;;8.67;7.80;;;8.30;99.90;;;;;;5118268;28;20957;-66
2024/02/14 07:41:41;;;;;;;9.57;8.63;;;8.30;99.90;;;;;;5118709;28;20462;-66
2024/02/14 07:44:08;;;;;;;9.90;8.87;;;8.40;99.90;;;;;;5118802;28;20868;-66
2024/02/14 07:46:35;;;;;;;9.07;8.20;;;8.40;99.90;;;;;;5118616;27;20744;-65
2024/02/14 07:49:04;;;;;;;10.13;9.20;;;8.40;99.90;;;;;;5118657;28;21024;-65
2024/02/14 07:51:36;;;;;;;9.50;8.60;;;8.40;99.90;;;;;;5118084;28;20459;-65
2024/02/14 07:54:04;;;;;;;10.33;8.83;;;8.40;99.90;;;;;;5118407;28;20460;-65
2024/02/14 07:56:32;;;;;;;10.13;7.77;;;8.40;99.90;;;;;;5118029;28;20466;-66
2024/02/14 07:58:59;;;;;;;9.50;7.77;;;8.50;99.90;;;;;;5118286;28;20484;-67
2024/02/14 08:01:30;;;;;;;7.93;7.23;;;8.50;99.90;;;;;;5118217;28;20554;-67
2024/02/14 08:03:58;;;;;;;7.60;6.90;;;8.60;99.90;;;;;;5118314;28;20885;-66
2024/02/14 08:06:27;;;;;;;10.37;6.70;;;8.50;99.90;;;;;;5117936;28;20459;-67
2024/02/14 08:08:58;;;;;;;6.50;5.90;;;8.50;99.90;;;;;;5117892;28;20495;-66
2024/02/14 08:11:26;;;;;;;8.60;5.90;;;8.60;99.90;;;;;;5117972;28;20482;-65
2024/02/14 08:13:53;;;;;;;6.47;5.77;;;8.50;99.90;;;;;;5117585;28;20455;-66
2024/02/14 08:16:20;;;;;;;6.87;6.17;;;8.60;99.90;;;;;;5118199;28;20807;-65
2024/02/14 08:18:48;;;;;;;7.37;5.80;;;8.60;99.90;;;;;;5117559;28;20512;-65
2024/02/14 08:21:15;;;;;;;5.90;5.40;;;8.50;99.90;;;;;;5117958;28;20892;-64
2024/02/14 08:23:44;;;;;;;7.40;5.70;;;8.60;99.90;;;;;;5117860;28;20456;-64
2024/02/14 08:26:12;;;;;;;6.20;5.60;;;8.60;99.90;;;;;;5117355;28;20523;-65
2024/02/14 08:28:40;;;;;;;5.83;5.23;;;8.70;99.90;;;;;;5117083;28;20500;-65
2024/02/14 08:31:11;;;;;;;7.27;5.87;;;8.60;99.90;;;;;;5117605;28;20467;-66
2024/02/14 08:33:39;;;;;;;6.10;5.30;;;8.70;99.90;;;;;;5117953;28;20756;-66
2024/02/14 08:36:08;;;;;;;6.70;6.00;;;8.70;99.90;;;;;;5117693;28;20456;-66
2024/02/14 08:38:35;;;;;;;5.70;5.10;;;8.70;99.90;;;;;;5120485;28;20802;-66
2024/02/14 08:41:04;;;;;;;9.23;5.10;;;8.70;99.90;;;;;;5120841;28;20455;-66
2024/02/14 08:43:33;;;;;;;6.27;5.60;;;8.70;99.90;;;;;;5119408;28;20460;-66
2024/02/14 08:46:01;;;;;;;6.17;5.23;;;8.70;99.90;;;;;;5120286;28;20463;-66
2024/02/14 08:48:30;;;;;;;6.73;6.03;;;8.70;99.90;;;;;;5120300;28;20550;-66
2024/02/14 08:50:58;;;;;;;6.27;5.63;;;8.70;99.90;;;;;;5119649;28;20589;-66
2024/02/14 08:53:25;;;;;;;6.50;5.90;;;8.80;99.90;;;;;;5120102;28;20849;-66
2024/02/14 08:55:53;;;;;;;5.80;5.30;;;8.90;99.90;;;;;;5120234;28;20490;-65
2024/02/14 08:58:23;;;;;;;7.27;5.90;;;8.90;99.90;;;;;;5120170;28;20945;-66
2024/02/14 09:00:52;;;;;;;5.33;4.63;;;8.90;99.90;;;;;;5119102;28;20554;-66
2024/02/14 09:03:19;;;;;;;5.57;5.07;;;8.90;99.90;;;;;;5118599;28;20464;-66
2024/02/14 09:05:47;;;;;;;5.33;4.83;;;9.00;99.90;;;;;;5119256;28;20774;-65
2024/02/14 09:08:15;;;;;;;5.20;4.60;;;9.00;99.90;;;;;;5119381;28;20493;-65
2024/02/14 09:10:42;;;;;;;4.80;4.30;;;9.00;99.90;;;;;;5118279;28;20459;-66
2024/02/14 09:13:10;;;;;;;5.87;4.60;;;9.00;99.90;;;;;;5119775;28;20531;-66
2024/02/14 09:15:39;;;;;;;8.13;5.40;;;9.00;99.90;;;;;;5119701;28;20542;-66
2024/02/14 09:18:07;;;;;;;4.93;3.90;;;9.00;99.90;;;;;;5119647;28;20459;-66
2024/02/14 09:20:34;;;;;;;3.90;3.40;;;9.00;99.90;;;;;;5121005;28;20490;-65
2024/02/14 09:23:01;;;;;;;4.37;3.97;;;9.00;99.90;;;;;;5120261;28;20505;-66
2024/02/14 09:25:29;;;;;;;4.20;3.80;;;9.10;99.90;;;;;;5120576;27;20786;-65
2024/02/14 09:27:57;;;;;;;4.90;3.80;;;9.10;99.90;;;;;;5120526;28;20540;-65
2024/02/14 09:30:24;;;;;;;5.70;3.70;;;9.10;99.90;;;;;;5120901;28;20455;-65
2024/02/14 09:32:53;;;;;;;8.00;3.93;;;9.20;99.90;;;;;;5120622;28;20558;-65
2024/02/14 09:35:20;;;;;;;5.93;3.87;;;9.20;99.90;;;;;;5120813;28;20448;-64
2024/02/14 09:37:48;;;;;;;4.83;3.57;;;9.20;99.90;;;;;;5120541;28;20536;-65
2024/02/14 09:40:16;;;;;;;4.20;3.40;;;9.30;99.90;;;;;;5120402;28;20492;-65
2024/02/14 09:42:48;;;;;;;4.13;3.73;;;9.30;99.90;;;;;;5119982;28;20554;-66
2024/02/14 09:45:16;;;;;;;5.10;4.20;;;9.40;99.90;;;;;;5120422;28;20798;-66
2024/02/14 09:47:44;;;;;;;4.27;3.50;;;9.40;99.90;;;;;;5119426;28;21001;-66
2024/02/14 09:50:14;;;;;;;4.80;3.90;;;9.50;99.90;;;;;;5118411;28;20467;-66
2024/02/14 09:52:43;;;;;;;4.73;3.50;;;9.50;99.90;;;;;;5118862;28;20463;-66
2024/02/14 09:55:13;;;;;;;4.10;3.40;;;9.50;99.90;;;;;;5119978;28;20951;-65
2024/02/14 09:57:43;;;;;;;4.00;3.57;;;9.60;99.90;;;;;;5120553;28;20460;-65
2024/02/14 10:00:14;;;;;;;5.70;4.10;;;9.60;99.90;;;;;;5120008;27;20462;-66
2024/02/14 10:02:42;;;;;;;5.47;4.47;;;9.70;99.90;;;;;;5119680;28;20460;-65
2024/02/14 10:05:10;;;;;;;4.53;3.90;;;9.60;99.90;;;;;;5120244;28;20509;-65
2024/02/14 10:07:46;;;;;;;6.20;3.40;;;9.60;99.90;;;;;;5120359;28;20512;-66
2024/02/14 10:10:14;;;;;;;6.23;4.47;;;9.70;99.90;;;;;;5120480;28;20508;-66
2024/02/14 10:12:43;;;;;;;5.03;4.13;;;9.70;99.90;;;;;;5119206;28;20461;-65
2024/02/14 10:15:11;;;;;;;5.77;3.77;;;9.70;99.90;;;;;;5119804;28;20462;-66
2024/02/14 10:17:41;;;;;;;8.10;5.17;;;9.60;99.90;;;;;;5120065;28;20456;-67
2024/02/14 10:20:10;;;;;;;4.37;3.97;;;9.70;99.90;;;;;;5119457;28;20728;-66
2024/02/14 10:22:39;;;;;;;5.97;3.70;;;9.70;99.90;;;;;;5119386;28;20546;-65
2024/02/14 10:25:09;;;;;;;6.87;4.13;;;9.80;99.90;;;;;;5119650;28;20459;-66
2024/02/14 10:27:38;;;;;;;6.17;3.50;;;9.80;99.90;;;;;;5099652;28;20463;-66
2024/02/14 10:30:09;;;;;;;4.80;4.07;;;9.80;99.90;;;;;;5099389;28;20495;-66
2024/02/14 10:32:37;;;;;;;4.47;3.70;;;9.90;99.90;;;;;;5098835;28;20581;-66
2024/02/14 10:35:08;;;;;;;5.13;3.53;;;10.00;99.90;;;;;;5099198;28;20465;-66
2024/02/14 10:37:37;;;;;;;5.07;3.80;;;10.00;99.90;;;;;;5098940;28;20459;-67
2024/02/14 10:40:06;;;;;;;6.50;3.87;;;10.10;99.90;;;;;;5099187;28;20943;-67
2024/02/14 10:42:35;;;;;;;4.20;3.80;;;10.10;99.90;;;;;;5099072;28;20470;-66
2024/02/14 10:45:03;;;;;;;4.80;3.63;;;10.10;99.90;;;;;;5098943;28;20460;-66
2024/02/14 10:47:33;;;;;;;9.30;4.63;;;10.10;99.90;;;;;;5098874;28;20961;-68
2024/02/14 10:50:03;;;;;;;4.40;3.60;;;10.20;99.90;;;;;;5098796;28;20496;-67
2024/02/14 10:52:33;;;;;;;5.30;4.43;;;10.10;99.90;;;;;;5099415;28;20460;-67
2024/02/14 10:55:03;;;;;;;6.40;3.73;;;10.20;99.90;;;;;;5098537;28;20492;-66
2024/02/14 10:57:31;;;;;;;6.80;4.03;;;10.30;99.90;;;;;;5098677;28;20908;-66
2024/02/14 11:00:02;;;;;;;5.20;3.93;;;10.30;99.90;;;;;;5097059;28;20885;-66
2024/02/14 11:02:32;;;;;;;6.50;4.60;;;10.40;99.90;;;;;;5097498;28;20781;-65
2024/02/14 11:05:00;;;;;;;5.10;4.30;;;10.50;99.90;;;;;;5096908;28;20497;-66
2024/02/14 11:07:30;;;;;;;5.20;3.73;;;10.50;99.90;;;;;;5097007;28;20798;-66
2024/02/14 11:10:06;;;;;;;5.87;4.23;;;10.50;99.90;;;;;;5096953;28;20492;-66
2024/02/14 11:12:36;;;;;;;6.43;3.40;;;10.40;99.90;;;;;;5097145;28;20517;-65
2024/02/14 11:15:11;;;;;;;5.20;3.70;;;10.50;99.90;;;;;;5096768;28;20842;-65
2024/02/14 11:17:40;;;;;;;4.87;3.80;;;10.50;99.90;;;;;;5098398;28;20463;-65
2024/02/14 11:20:16;;;;;;;8.70;4.70;;;10.60;99.90;;;;;;5098377;28;20456;-64
2024/02/14 11:22:56;;;;;;;6.00;4.13;;;10.60;99.90;;;;;;5098112;28;20466;-66
2024/02/14 11:25:33;;;;;;;9.27;5.27;;;10.70;99.90;;;;;;5100123;28;20886;-65
2024/02/14 11:28:02;;;;;;;6.70;4.90;;;10.80;99.90;;;;;;5118503;28;20459;-64
2024/02/14 11:30:36;;;;;;;8.07;4.60;;;10.80;99.90;;;;;;5118630;28;20868;-64
2024/02/14 11:33:16;;;;;;;4.40;3.10;;;10.80;99.90;;;;;;5117168;28;20467;-65
2024/02/14 11:35:43;;;;;;;4.40;3.30;;;10.80;99.90;;;;;;5115437;28;20765;-67
2024/02/14 11:38:11;;;;;;;4.50;3.57;;;10.80;99.90;;;;;;5117976;28;20463;-65
2024/02/14 11:40:39;;;;;;;8.43;3.83;;;10.80;99.90;;;;;;5117022;28;20491;-64
2024/02/14 11:43:11;;;;;;;5.63;3.70;;;10.80;99.90;;;;;;5115319;28;20456;-65
2024/02/14 11:45:41;;;;;;;5.67;4.20;;;10.70;99.90;;;;;;5115984;28;20908;-64
2024/02/14 11:48:10;;;;;;;8.83;5.80;;;10.60;99.90;;;;;;5116230;28;20455;-63
2024/02/14 11:50:40;;;;;;;5.20;3.93;;;10.60;99.90;;;;;;5116167;28;20434;-65
2024/02/14 11:53:09;;;;;;;6.30;5.70;;;10.50;99.90;;;;;;5116338;28;20459;-65
2024/02/14 11:55:38;;;;;;;9.17;4.50;;;10.50;99.90;;;;;;5116087;28;20512;-64
2024/02/14 11:58:10;;;;;;;5.63;5.03;;;10.50;99.90;;;;;;5116915;28;20819;-64
2024/02/14 12:00:41;;;;;;;13.10;5.57;;;10.60;99.90;;;;;;5117548;28;20452;-65
2024/02/14 12:03:09;;;;;;;8.03;5.77;;;10.60;99.90;;;;;;5117397;28;20966;-65
2024/02/14 12:05:38;;;;;;;7.73;6.27;;;10.60;99.90;;;;;;5115740;28;20464;-65
2024/02/14 12:08:07;;;;;;;9.83;7.67;;;10.60;99.90;;;;;;5115363;28;20487;-65
2024/02/14 12:10:36;;;;;;;11.67;8.07;;;10.70;99.90;;;;;;5115902;28;20487;-66
2024/02/14 12:13:08;;;;;;;9.13;6.23;;;10.70;99.90;;;;;;5115091;28;20456;-66
2024/02/14 12:15:41;;;;;;;5.50;4.90;;;10.70;99.90;;;;;;5115084;28;20550;-66
2024/02/14 12:18:09;;;;;;;4.83;4.43;;;10.80;99.90;;;;;;5115674;28;20510;-65
2024/02/14 12:20:37;;;;;;;6.67;5.30;;;10.80;99.90;;;;;;5115698;28;20464;-66
2024/02/14 12:23:05;;;;;;;9.10;5.00;;;10.90;99.90;;;;;;5116692;28;20452;-66
2024/02/14 12:25:34;;;;;;;4.77;3.93;;;11.00;99.90;;;;;;5116453;28;20484;-66
2024/02/14 12:28:01;;;;;;;7.50;4.00;;;10.90;99.90;;;;;;5116666;28;20783;-65
2024/02/14 12:30:46;;;;;;;8.37;5.60;;;10.90;99.90;;;;;;5114819;28;20523;-66
2024/02/14 12:33:14;;;;;;;6.50;3.60;;;10.90;99.90;;;;;;5114500;28;20524;-66
2024/02/14 12:35:45;;;;;;;7.23;4.30;;;11.00;99.90;;;;;;5114015;28;20458;-67
2024/02/14 12:38:13;;;;;;;9.50;3.73;;;11.00;99.90;;;;;;5113378;28;20463;-67
2024/02/14 12:40:42;;;;;;;5.57;3.50;;;11.10;99.90;;;;;;5113653;28;21021;-67
2024/02/14 12:43:10;;;;;;;8.40;3.50;;;11.20;99.90;;;;;;5114204;28;20561;-68
2024/02/14 12:45:38;;;;;;;3.97;3.50;;;11.40;99.90;;;;;;5114204;28;20881;-67
2024/02/14 12:48:09;;;;;;;9.03;3.90;;;11.30;99.90;;;;;;5114253;28;20869;-66
2024/02/14 12:50:37;;;;;;;5.07;4.20;;;11.50;99.90;;;;;;5113974;28;20990;-67
2024/02/14 12:53:05;;;;;;;5.43;4.10;;;11.50;99.90;;;;;;5114992;28;20479;-67
2024/02/14 12:55:32;;;;;;;4.47;3.30;;;11.60;99.90;;;;;;5116228;28;20538;-67
2024/02/14 12:58:01;;;;;;;4.53;2.70;;;11.70;99.90;;;;;;5115502;28;20451;-70
2024/02/14 13:00:29;;;;;;;6.07;3.60;;;11.60;99.90;;;;;;5116930;28;20462;-70